Cheboksary, Russia
Current Conditions -  °F | °C
As of 7:00 AM on Monday 20 Oct 2014 (Local Time) from UWKS Reporting Station
Broken Clouds Broken Clouds  
Wind Chill: 15°   Ceiling: 800
Heat Index: 21°   Visibility: 4mi
Dew Point: 19°   Wind: 4mph
Humidity: 93%   Direction: 210°SSW
Pressure: 29.83"   Gusts: NA
Location:  56.13°N, 47.25°E
Report Text: UWKS 200400Z 21002MPS 7000 BKN008 BKN066 M06/M07 Q1010 NOSIGRMK QFE742 06900155
Loading
Personal Weather Stations






























Interactive Weather Map
Tropical Storm Tracking
New forecast layout! Learn more

10-Day Weather Forecast

Advertisements
Track Severe Weather on mobile